sensor_id;sensor_type;location;lat;lon;timestamp;P1;durP1;ratioP1;P2;durP2;ratioP2
5040;SDS011;2539;52.568;13.364;2023-03-19T00:01:46;17.53;;;11.97;;
5040;SDS011;2539;52.568;13.364;2023-03-19T00:04:13;17.07;;;13.20;;
5040;SDS011;2539;52.568;13.364;2023-03-19T00:06:42;24.83;;;17.03;;
5040;SDS011;2539;52.568;13.364;2023-03-19T00:09:09;17.50;;;13.13;;
5040;SDS011;2539;52.568;13.364;2023-03-19T00:11:36;18.10;;;12.50;;
5040;SDS011;2539;52.568;13.364;2023-03-19T00:14:03;21.77;;;13.50;;
5040;SDS011;2539;52.568;13.364;2023-03-19T00:16:30;16.43;;;12.30;;
5040;SDS011;2539;52.568;13.364;2023-03-19T00:18:56;21.00;;;13.90;;
5040;SDS011;2539;52.568;13.364;2023-03-19T00:21:22;21.97;;;16.37;;
5040;SDS011;2539;52.568;13.364;2023-03-19T00:23:49;27.80;;;15.70;;
5040;SDS011;2539;52.568;13.364;2023-03-19T00:26:16;15.50;;;12.20;;
5040;SDS011;2539;52.568;13.364;2023-03-19T00:28:43;18.27;;;12.90;;
5040;SDS011;2539;52.568;13.364;2023-03-19T00:31:10;20.27;;;12.00;;
5040;SDS011;2539;52.568;13.364;2023-03-19T00:33:37;14.10;;;12.30;;
5040;SDS011;2539;52.568;13.364;2023-03-19T00:36:03;23.77;;;14.20;;
5040;SDS011;2539;52.568;13.364;2023-03-19T00:38:31;17.10;;;11.83;;
5040;SDS011;2539;52.568;13.364;2023-03-19T00:40:59;15.57;;;12.07;;
5040;SDS011;2539;52.568;13.364;2023-03-19T00:43:25;18.10;;;11.70;;
5040;SDS011;2539;52.568;13.364;2023-03-19T00:45:53;18.70;;;12.60;;
5040;SDS011;2539;52.568;13.364;2023-03-19T00:48:19;17.83;;;12.27;;
5040;SDS011;2539;52.568;13.364;2023-03-19T00:50:46;18.37;;;13.00;;
5040;SDS011;2539;52.568;13.364;2023-03-19T00:53:13;18.20;;;12.20;;
5040;SDS011;2539;52.568;13.364;2023-03-19T00:55:40;16.60;;;12.67;;
5040;SDS011;2539;52.568;13.364;2023-03-19T00:58:06;16.37;;;10.97;;
5040;SDS011;2539;52.568;13.364;2023-03-19T01:00:35;14.00;;;11.47;;
5040;SDS011;2539;52.568;13.364;2023-03-19T01:03:05;15.13;;;11.93;;
5040;SDS011;2539;52.568;13.364;2023-03-19T01:05:33;14.83;;;10.90;;
5040;SDS011;2539;52.568;13.364;2023-03-19T01:07:59;17.00;;;11.90;;
5040;SDS011;2539;52.568;13.364;2023-03-19T01:10:27;15.43;;;11.40;;
5040;SDS011;2539;52.568;13.364;2023-03-19T01:12:53;17.63;;;10.60;;
5040;SDS011;2539;52.568;13.364;2023-03-19T01:15:25;19.17;;;12.20;;
5040;SDS011;2539;52.568;13.364;2023-03-19T01:17:52;17.07;;;11.90;;
5040;SDS011;2539;52.568;13.364;2023-03-19T01:20:19;17.20;;;10.60;;
5040;SDS011;2539;52.568;13.364;2023-03-19T01:22:48;14.57;;;10.90;;
5040;SDS011;2539;52.568;13.364;2023-03-19T01:25:15;13.37;;;10.23;;
5040;SDS011;2539;52.568;13.364;2023-03-19T01:27:42;17.07;;;10.93;;
5040;SDS011;2539;52.568;13.364;2023-03-19T01:30:08;12.63;;;10.37;;
5040;SDS011;2539;52.568;13.364;2023-03-19T01:32:35;13.17;;;9.57;;
5040;SDS011;2539;52.568;13.364;2023-03-19T01:35:01;17.30;;;10.70;;
5040;SDS011;2539;52.568;13.364;2023-03-19T01:37:28;16.77;;;10.80;;
5040;SDS011;2539;52.568;13.364;2023-03-19T01:39:55;13.90;;;10.53;;
5040;SDS011;2539;52.568;13.364;2023-03-19T01:42:22;14.37;;;10.30;;
5040;SDS011;2539;52.568;13.364;2023-03-19T01:44:48;19.23;;;10.77;;
5040;SDS011;2539;52.568;13.364;2023-03-19T01:47:32;14.93;;;10.90;;
5040;SDS011;2539;52.568;13.364;2023-03-19T01:50:01;18.53;;;11.50;;
5040;SDS011;2539;52.568;13.364;2023-03-19T01:52:30;15.73;;;11.53;;
5040;SDS011;2539;52.568;13.364;2023-03-19T01:55:00;15.07;;;10.73;;
5040;SDS011;2539;52.568;13.364;2023-03-19T01:57:29;23.43;;;11.80;;
5040;SDS011;2539;52.568;13.364;2023-03-19T01:59:59;16.83;;;10.80;;
5040;SDS011;2539;52.568;13.364;2023-03-19T02:02:27;13.97;;;11.50;;
5040;SDS011;2539;52.568;13.364;2023-03-19T02:05:17;15.33;;;11.60;;
5040;SDS011;2539;52.568;13.364;2023-03-19T02:07:51;16.10;;;11.50;;
5040;SDS011;2539;52.568;13.364;2023-03-19T02:10:20;14.20;;;10.93;;
5040;SDS011;2539;52.568;13.364;2023-03-19T02:12:47;16.17;;;12.07;;
5040;SDS011;2539;52.568;13.364;2023-03-19T02:15:14;19.37;;;11.90;;
5040;SDS011;2539;52.568;13.364;2023-03-19T02:17:41;19.50;;;11.87;;
5040;SDS011;2539;52.568;13.364;2023-03-19T02:23:13;14.67;;;10.67;;
5040;SDS011;2539;52.568;13.364;2023-03-19T02:28:14;17.57;;;11.73;;
5040;SDS011;2539;52.568;13.364;2023-03-19T02:30:43;16.80;;;12.17;;
5040;SDS011;2539;52.568;13.364;2023-03-19T02:33:11;15.50;;;12.03;;
5040;SDS011;2539;52.568;13.364;2023-03-19T02:35:39;19.33;;;11.57;;
5040;SDS011;2539;52.568;13.364;2023-03-19T02:38:07;15.23;;;11.20;;
5040;SDS011;2539;52.568;13.364;2023-03-19T02:40:37;14.77;;;11.30;;
5040;SDS011;2539;52.568;13.364;2023-03-19T02:43:10;15.80;;;12.20;;
5040;SDS011;2539;52.568;13.364;2023-03-19T02:45:36;16.87;;;12.23;;
5040;SDS011;2539;52.568;13.364;2023-03-19T02:48:02;13.90;;;11.37;;
5040;SDS011;2539;52.568;13.364;2023-03-19T02:50:29;18.53;;;11.60;;
5040;SDS011;2539;52.568;13.364;2023-03-19T02:52:55;14.40;;;11.67;;
5040;SDS011;2539;52.568;13.364;2023-03-19T02:55:21;18.73;;;12.40;;
5040;SDS011;2539;52.568;13.364;2023-03-19T02:57:47;15.57;;;11.07;;
5040;SDS011;2539;52.568;13.364;2023-03-19T03:00:14;14.07;;;11.87;;
5040;SDS011;2539;52.568;13.364;2023-03-19T03:02:43;15.10;;;11.00;;
5040;SDS011;2539;52.568;13.364;2023-03-19T03:05:10;17.17;;;11.90;;
5040;SDS011;2539;52.568;13.364;2023-03-19T03:07:37;19.40;;;12.47;;
5040;SDS011;2539;52.568;13.364;2023-03-19T03:10:08;17.30;;;12.40;;
5040;SDS011;2539;52.568;13.364;2023-03-19T03:12:34;15.20;;;11.20;;
5040;SDS011;2539;52.568;13.364;2023-03-19T03:15:01;14.67;;;10.63;;
5040;SDS011;2539;52.568;13.364;2023-03-19T03:17:27;15.77;;;11.90;;
5040;SDS011;2539;52.568;13.364;2023-03-19T03:19:54;22.10;;;12.17;;
5040;SDS011;2539;52.568;13.364;2023-03-19T03:22:20;20.23;;;13.03;;
5040;SDS011;2539;52.568;13.364;2023-03-19T03:24:47;16.83;;;11.83;;
5040;SDS011;2539;52.568;13.364;2023-03-19T03:27:14;17.83;;;11.37;;
5040;SDS011;2539;52.568;13.364;2023-03-19T03:29:41;18.53;;;11.70;;
5040;SDS011;2539;52.568;13.364;2023-03-19T03:32:08;14.33;;;11.23;;
5040;SDS011;2539;52.568;13.364;2023-03-19T03:34:34;14.73;;;11.60;;
5040;SDS011;2539;52.568;13.364;2023-03-19T03:37:01;15.40;;;11.60;;
5040;SDS011;2539;52.568;13.364;2023-03-19T03:39:27;15.23;;;11.37;;
5040;SDS011;2539;52.568;13.364;2023-03-19T03:41:54;14.57;;;11.20;;
5040;SDS011;2539;52.568;13.364;2023-03-19T03:44:20;14.53;;;10.77;;
5040;SDS011;2539;52.568;13.364;2023-03-19T03:46:46;14.27;;;10.80;;
5040;SDS011;2539;52.568;13.364;2023-03-19T03:49:14;14.80;;;11.40;;
5040;SDS011;2539;52.568;13.364;2023-03-19T03:51:40;13.50;;;10.80;;
5040;SDS011;2539;52.568;13.364;2023-03-19T03:54:07;14.67;;;10.93;;
5040;SDS011;2539;52.568;13.364;2023-03-19T03:56:33;19.43;;;11.50;;
5040;SDS011;2539;52.568;13.364;2023-03-19T03:58:59;19.07;;;11.20;;
5040;SDS011;2539;52.568;13.364;2023-03-19T04:01:25;15.90;;;11.93;;
5040;SDS011;2539;52.568;13.364;2023-03-19T04:03:52;16.50;;;11.67;;
5040;SDS011;2539;52.568;13.364;2023-03-19T04:06:19;16.53;;;12.50;;
5040;SDS011;2539;52.568;13.364;2023-03-19T04:08:47;16.37;;;12.17;;
5040;SDS011;2539;52.568;13.364;2023-03-19T04:11:13;17.33;;;12.33;;
5040;SDS011;2539;52.568;13.364;2023-03-19T04:13:40;23.43;;;12.53;;
5040;SDS011;2539;52.568;13.364;2023-03-19T04:16:07;16.83;;;11.90;;
5040;SDS011;2539;52.568;13.364;2023-03-19T04:18:34;23.80;;;12.70;;
5040;SDS011;2539;52.568;13.364;2023-03-19T04:21:03;14.27;;;11.33;;
5040;SDS011;2539;52.568;13.364;2023-03-19T04:23:30;18.30;;;11.90;;
5040;SDS011;2539;52.568;13.364;2023-03-19T04:26:00;17.77;;;11.80;;
5040;SDS011;2539;52.568;13.364;2023-03-19T04:28:28;15.97;;;12.10;;
5040;SDS011;2539;52.568;13.364;2023-03-19T04:31:02;15.57;;;12.03;;
5040;SDS011;2539;52.568;13.364;2023-03-19T04:33:30;25.20;;;12.07;;
5040;SDS011;2539;52.568;13.364;2023-03-19T04:35:57;17.30;;;12.90;;
5040;SDS011;2539;52.568;13.364;2023-03-19T04:38:24;17.73;;;11.37;;
5040;SDS011;2539;52.568;13.364;2023-03-19T04:40:54;17.43;;;12.80;;
5040;SDS011;2539;52.568;13.364;2023-03-19T04:43:21;16.37;;;11.73;;
5040;SDS011;2539;52.568;13.364;2023-03-19T04:45:48;18.97;;;12.30;;
5040;SDS011;2539;52.568;13.364;2023-03-19T04:48:14;17.43;;;12.20;;
5040;SDS011;2539;52.568;13.364;2023-03-19T04:50:44;24.73;;;13.50;;
5040;SDS011;2539;52.568;13.364;2023-03-19T04:53:12;18.27;;;11.80;;
5040;SDS011;2539;52.568;13.364;2023-03-19T04:55:38;18.67;;;11.70;;
5040;SDS011;2539;52.568;13.364;2023-03-19T04:58:04;19.43;;;11.90;;
5040;SDS011;2539;52.568;13.364;2023-03-19T05:00:31;18.07;;;12.90;;
5040;SDS011;2539;52.568;13.364;2023-03-19T05:02:57;15.07;;;12.57;;
5040;SDS011;2539;52.568;13.364;2023-03-19T05:05:24;15.53;;;12.30;;
5040;SDS011;2539;52.568;13.364;2023-03-19T05:07:50;17.10;;;12.00;;
5040;SDS011;2539;52.568;13.364;2023-03-19T05:10:16;16.77;;;12.23;;
5040;SDS011;2539;52.568;13.364;2023-03-19T05:12:43;18.43;;;12.00;;
5040;SDS011;2539;52.568;13.364;2023-03-19T05:15:09;15.53;;;12.23;;
5040;SDS011;2539;52.568;13.364;2023-03-19T05:17:36;15.93;;;11.93;;
5040;SDS011;2539;52.568;13.364;2023-03-19T05:20:02;16.83;;;11.70;;
5040;SDS011;2539;52.568;13.364;2023-03-19T05:22:29;17.70;;;12.63;;
5040;SDS011;2539;52.568;13.364;2023-03-19T05:24:56;15.13;;;12.60;;
5040;SDS011;2539;52.568;13.364;2023-03-19T05:27:22;19.00;;;13.60;;
5040;SDS011;2539;52.568;13.364;2023-03-19T05:29:49;18.37;;;14.33;;
5040;SDS011;2539;52.568;13.364;2023-03-19T05:32:15;20.20;;;14.37;;
5040;SDS011;2539;52.568;13.364;2023-03-19T05:34:41;21.10;;;15.33;;
5040;SDS011;2539;52.568;13.364;2023-03-19T05:37:08;26.93;;;16.17;;
5040;SDS011;2539;52.568;13.364;2023-03-19T05:39:34;30.73;;;16.97;;
5040;SDS011;2539;52.568;13.364;2023-03-19T05:42:01;20.57;;;15.43;;
5040;SDS011;2539;52.568;13.364;2023-03-19T05:44:27;21.60;;;16.30;;
5040;SDS011;2539;52.568;13.364;2023-03-19T05:46:53;23.73;;;15.60;;
5040;SDS011;2539;52.568;13.364;2023-03-19T05:49:20;22.03;;;16.07;;
5040;SDS011;2539;52.568;13.364;2023-03-19T05:51:46;20.00;;;13.13;;
5040;SDS011;2539;52.568;13.364;2023-03-19T05:54:13;17.40;;;13.53;;
5040;SDS011;2539;52.568;13.364;2023-03-19T05:56:39;23.17;;;15.50;;
5040;SDS011;2539;52.568;13.364;2023-03-19T05:59:06;18.53;;;13.67;;
5040;SDS011;2539;52.568;13.364;2023-03-19T06:01:32;25.73;;;14.97;;
5040;SDS011;2539;52.568;13.364;2023-03-19T06:03:58;20.80;;;13.90;;
5040;SDS011;2539;52.568;13.364;2023-03-19T06:06:24;17.43;;;13.13;;
5040;SDS011;2539;52.568;13.364;2023-03-19T06:08:51;21.90;;;13.73;;
5040;SDS011;2539;52.568;13.364;2023-03-19T06:11:17;20.00;;;13.90;;
5040;SDS011;2539;52.568;13.364;2023-03-19T06:13:42;24.47;;;13.40;;
5040;SDS011;2539;52.568;13.364;2023-03-19T06:16:10;20.60;;;14.60;;
5040;SDS011;2539;52.568;13.364;2023-03-19T06:18:37;18.73;;;13.57;;
5040;SDS011;2539;52.568;13.364;2023-03-19T06:21:03;19.87;;;15.17;;
5040;SDS011;2539;52.568;13.364;2023-03-19T06:23:30;20.33;;;14.03;;
5040;SDS011;2539;52.568;13.364;2023-03-19T06:25:56;21.13;;;12.90;;
5040;SDS011;2539;52.568;13.364;2023-03-19T06:28:23;18.30;;;14.20;;
5040;SDS011;2539;52.568;13.364;2023-03-19T06:30:49;22.53;;;13.60;;
5040;SDS011;2539;52.568;13.364;2023-03-19T06:33:15;20.60;;;13.83;;
5040;SDS011;2539;52.568;13.364;2023-03-19T06:35:42;18.70;;;14.17;;
5040;SDS011;2539;52.568;13.364;2023-03-19T06:38:08;19.90;;;14.17;;
5040;SDS011;2539;52.568;13.364;2023-03-19T06:40:34;18.40;;;13.50;;
5040;SDS011;2539;52.568;13.364;2023-03-19T06:43:00;20.40;;;14.40;;
5040;SDS011;2539;52.568;13.364;2023-03-19T06:45:27;19.80;;;14.20;;
5040;SDS011;2539;52.568;13.364;2023-03-19T06:47:53;21.57;;;14.30;;
5040;SDS011;2539;52.568;13.364;2023-03-19T06:50:19;22.47;;;15.13;;
5040;SDS011;2539;52.568;13.364;2023-03-19T06:52:46;22.43;;;15.30;;
5040;SDS011;2539;52.568;13.364;2023-03-19T06:55:12;20.73;;;15.57;;
5040;SDS011;2539;52.568;13.364;2023-03-19T06:57:39;20.77;;;15.07;;
5040;SDS011;2539;52.568;13.364;2023-03-19T07:00:06;20.10;;;13.77;;
5040;SDS011;2539;52.568;13.364;2023-03-19T07:02:35;22.23;;;16.43;;
5040;SDS011;2539;52.568;13.364;2023-03-19T07:05:01;22.77;;;15.07;;
5040;SDS011;2539;52.568;13.364;2023-03-19T07:07:27;23.80;;;16.47;;
5040;SDS011;2539;52.568;13.364;2023-03-19T07:09:54;28.40;;;16.53;;
5040;SDS011;2539;52.568;13.364;2023-03-19T07:12:20;21.83;;;15.87;;
5040;SDS011;2539;52.568;13.364;2023-03-19T07:14:47;19.30;;;15.20;;
5040;SDS011;2539;52.568;13.364;2023-03-19T07:17:13;25.03;;;16.80;;
5040;SDS011;2539;52.568;13.364;2023-03-19T07:19:39;23.97;;;15.23;;
5040;SDS011;2539;52.568;13.364;2023-03-19T07:22:05;21.30;;;17.10;;
5040;SDS011;2539;52.568;13.364;2023-03-19T07:24:32;25.40;;;16.63;;
5040;SDS011;2539;52.568;13.364;2023-03-19T07:26:58;21.13;;;16.33;;
5040;SDS011;2539;52.568;13.364;2023-03-19T07:29:24;26.90;;;17.90;;
5040;SDS011;2539;52.568;13.364;2023-03-19T07:31:50;34.50;;;19.07;;
5040;SDS011;2539;52.568;13.364;2023-03-19T07:34:17;26.63;;;17.10;;
5040;SDS011;2539;52.568;13.364;2023-03-19T07:36:43;24.70;;;15.87;;
5040;SDS011;2539;52.568;13.364;2023-03-19T07:39:10;24.47;;;15.00;;
5040;SDS011;2539;52.568;13.364;2023-03-19T07:41:36;25.13;;;15.37;;
5040;SDS011;2539;52.568;13.364;2023-03-19T07:44:02;23.20;;;13.00;;
5040;SDS011;2539;52.568;13.364;2023-03-19T07:46:29;20.37;;;14.17;;
5040;SDS011;2539;52.568;13.364;2023-03-19T07:48:55;17.23;;;13.17;;
5040;SDS011;2539;52.568;13.364;2023-03-19T07:51:21;20.10;;;13.90;;
5040;SDS011;2539;52.568;13.364;2023-03-19T07:53:48;20.40;;;13.63;;
5040;SDS011;2539;52.568;13.364;2023-03-19T07:56:14;19.70;;;12.37;;
5040;SDS011;2539;52.568;13.364;2023-03-19T07:58:40;16.47;;;11.07;;
5040;SDS011;2539;52.568;13.364;2023-03-19T08:01:05;19.20;;;12.30;;
5040;SDS011;2539;52.568;13.364;2023-03-19T08:03:31;23.27;;;13.63;;
5040;SDS011;2539;52.568;13.364;2023-03-19T08:05:57;20.63;;;13.97;;
5040;SDS011;2539;52.568;13.364;2023-03-19T08:08:23;19.93;;;13.50;;
5040;SDS011;2539;52.568;13.364;2023-03-19T08:10:52;17.00;;;12.50;;
5040;SDS011;2539;52.568;13.364;2023-03-19T08:13:19;21.63;;;13.73;;
5040;SDS011;2539;52.568;13.364;2023-03-19T08:15:45;18.57;;;14.10;;
5040;SDS011;2539;52.568;13.364;2023-03-19T08:18:12;19.33;;;13.27;;
5040;SDS011;2539;52.568;13.364;2023-03-19T08:20:38;23.27;;;13.50;;
5040;SDS011;2539;52.568;13.364;2023-03-19T08:23:05;21.77;;;12.20;;
5040;SDS011;2539;52.568;13.364;2023-03-19T08:25:31;18.30;;;12.53;;
5040;SDS011;2539;52.568;13.364;2023-03-19T08:27:58;19.70;;;12.90;;
5040;SDS011;2539;52.568;13.364;2023-03-19T08:30:25;23.40;;;14.70;;
5040;SDS011;2539;52.568;13.364;2023-03-19T08:32:51;22.40;;;14.33;;
5040;SDS011;2539;52.568;13.364;2023-03-19T08:35:18;25.07;;;15.20;;
5040;SDS011;2539;52.568;13.364;2023-03-19T08:37:45;24.07;;;15.83;;
5040;SDS011;2539;52.568;13.364;2023-03-19T08:40:11;22.53;;;15.53;;
5040;SDS011;2539;52.568;13.364;2023-03-19T08:42:37;33.63;;;17.00;;
5040;SDS011;2539;52.568;13.364;2023-03-19T08:45:09;27.60;;;17.80;;
5040;SDS011;2539;52.568;13.364;2023-03-19T08:47:37;34.30;;;19.10;;
5040;SDS011;2539;52.568;13.364;2023-03-19T08:50:04;29.97;;;17.90;;
5040;SDS011;2539;52.568;13.364;2023-03-19T08:52:31;28.43;;;17.43;;
5040;SDS011;2539;52.568;13.364;2023-03-19T08:54:58;25.50;;;17.77;;
5040;SDS011;2539;52.568;13.364;2023-03-19T08:57:24;26.97;;;17.77;;
5040;SDS011;2539;52.568;13.364;2023-03-19T08:59:51;29.07;;;17.63;;
5040;SDS011;2539;52.568;13.364;2023-03-19T09:02:18;28.60;;;17.77;;
5040;SDS011;2539;52.568;13.364;2023-03-19T09:04:44;30.37;;;17.67;;
5040;SDS011;2539;52.568;13.364;2023-03-19T09:07:11;26.30;;;15.40;;
5040;SDS011;2539;52.568;13.364;2023-03-19T09:09:38;22.67;;;15.80;;
5040;SDS011;2539;52.568;13.364;2023-03-19T09:12:05;24.57;;;16.97;;
5040;SDS011;2539;52.568;13.364;2023-03-19T09:14:33;23.10;;;16.17;;
5040;SDS011;2539;52.568;13.364;2023-03-19T09:17:00;20.30;;;14.93;;
5040;SDS011;2539;52.568;13.364;2023-03-19T09:19:27;20.17;;;14.80;;
5040;SDS011;2539;52.568;13.364;2023-03-19T09:21:53;22.27;;;15.27;;
5040;SDS011;2539;52.568;13.364;2023-03-19T09:24:20;24.37;;;15.80;;
5040;SDS011;2539;52.568;13.364;2023-03-19T09:26:46;18.80;;;13.97;;
5040;SDS011;2539;52.568;13.364;2023-03-19T09:29:14;24.57;;;16.60;;
5040;SDS011;2539;52.568;13.364;2023-03-19T09:31:41;18.60;;;14.03;;
5040;SDS011;2539;52.568;13.364;2023-03-19T09:34:08;23.53;;;14.40;;
5040;SDS011;2539;52.568;13.364;2023-03-19T09:36:34;23.60;;;15.50;;
5040;SDS011;2539;52.568;13.364;2023-03-19T09:39:00;20.90;;;14.33;;
5040;SDS011;2539;52.568;13.364;2023-03-19T09:46:28;18.73;;;14.20;;
5040;SDS011;2539;52.568;13.364;2023-03-19T09:49:27;20.00;;;14.47;;
5040;SDS011;2539;52.568;13.364;2023-03-19T09:55:19;22.73;;;14.70;;
5040;SDS011;2539;52.568;13.364;2023-03-19T09:57:57;23.17;;;14.63;;
5040;SDS011;2539;52.568;13.364;2023-03-19T10:00:24;19.53;;;12.60;;
5040;SDS011;2539;52.568;13.364;2023-03-19T10:02:55;19.83;;;14.13;;
5040;SDS011;2539;52.568;13.364;2023-03-19T10:08:28;19.73;;;14.10;;
5040;SDS011;2539;52.568;13.364;2023-03-19T10:14:25;20.03;;;15.00;;
5040;SDS011;2539;52.568;13.364;2023-03-19T10:17:21;20.73;;;14.60;;
5040;SDS011;2539;52.568;13.364;2023-03-19T10:19:57;18.43;;;14.60;;
5040;SDS011;2539;52.568;13.364;2023-03-19T10:22:33;17.93;;;14.43;;
5040;SDS011;2539;52.568;13.364;2023-03-19T10:25:02;17.83;;;14.40;;
5040;SDS011;2539;52.568;13.364;2023-03-19T10:27:34;18.83;;;13.90;;
5040;SDS011;2539;52.568;13.364;2023-03-19T10:30:10;17.23;;;13.70;;
5040;SDS011;2539;52.568;13.364;2023-03-19T10:32:41;16.07;;;13.70;;
5040;SDS011;2539;52.568;13.364;2023-03-19T10:35:54;17.63;;;14.57;;
5040;SDS011;2539;52.568;13.364;2023-03-19T10:38:20;16.27;;;13.47;;
5040;SDS011;2539;52.568;13.364;2023-03-19T10:43:46;12.57;;;8.57;;
5040;SDS011;2539;52.568;13.364;2023-03-19T10:46:17;10.90;;;8.97;;
5040;SDS011;2539;52.568;13.364;2023-03-19T10:48:44;12.33;;;8.77;;
5040;SDS011;2539;52.568;13.364;2023-03-19T10:51:21;12.73;;;8.60;;
5040;SDS011;2539;52.568;13.364;2023-03-19T10:53:53;10.40;;;7.70;;
5040;SDS011;2539;52.568;13.364;2023-03-19T10:56:23;11.77;;;7.80;;
5040;SDS011;2539;52.568;13.364;2023-03-19T10:59:03;13.03;;;6.77;;
5040;SDS011;2539;52.568;13.364;2023-03-19T11:01:32;11.83;;;9.10;;
5040;SDS011;2539;52.568;13.364;2023-03-19T11:04:12;15.50;;;8.43;;
5040;SDS011;2539;52.568;13.364;2023-03-19T11:06:48;15.17;;;8.13;;
5040;SDS011;2539;52.568;13.364;2023-03-19T11:12:15;11.17;;;7.60;;
5040;SDS011;2539;52.568;13.364;2023-03-19T11:14:47;10.03;;;7.40;;
5040;SDS011;2539;52.568;13.364;2023-03-19T11:17:22;8.87;;;7.30;;
5040;SDS011;2539;52.568;13.364;2023-03-19T11:19:56;11.73;;;7.50;;
5040;SDS011;2539;52.568;13.364;2023-03-19T11:22:25;13.70;;;7.37;;
5040;SDS011;2539;52.568;13.364;2023-03-19T11:25:01;12.30;;;7.73;;
5040;SDS011;2539;52.568;13.364;2023-03-19T11:28:13;9.97;;;7.80;;
5040;SDS011;2539;52.568;13.364;2023-03-19T11:30:58;13.30;;;8.10;;
5040;SDS011;2539;52.568;13.364;2023-03-19T11:37:16;17.23;;;7.60;;
5040;SDS011;2539;52.568;13.364;2023-03-19T11:39:58;11.07;;;8.07;;
5040;SDS011;2539;52.568;13.364;2023-03-19T11:42:47;7.70;;;6.47;;
5040;SDS011;2539;52.568;13.364;2023-03-19T11:45:43;8.30;;;6.63;;
5040;SDS011;2539;52.568;13.364;2023-03-19T11:48:33;9.83;;;6.60;;
5040;SDS011;2539;52.568;13.364;2023-03-19T11:51:37;13.40;;;8.97;;
5040;SDS011;2539;52.568;13.364;2023-03-19T11:54:16;14.33;;;8.70;;
5040;SDS011;2539;52.568;13.364;2023-03-19T11:56:59;15.33;;;7.73;;
5040;SDS011;2539;52.568;13.364;2023-03-19T11:59:37;8.77;;;5.70;;
5040;SDS011;2539;52.568;13.364;2023-03-19T12:05:16;9.40;;;5.90;;
5040;SDS011;2539;52.568;13.364;2023-03-19T12:19:48;7.27;;;5.27;;
5040;SDS011;2539;52.568;13.364;2023-03-19T12:22:38;6.97;;;5.57;;
5040;SDS011;2539;52.568;13.364;2023-03-19T12:28:10;9.70;;;7.10;;
5040;SDS011;2539;52.568;13.364;2023-03-19T12:33:58;10.23;;;8.03;;
5040;SDS011;2539;52.568;13.364;2023-03-19T12:36:36;8.70;;;7.80;;
5040;SDS011;2539;52.568;13.364;2023-03-19T12:39:10;12.57;;;10.83;;
5040;SDS011;2539;52.568;13.364;2023-03-19T12:41:41;12.80;;;10.17;;
5040;SDS011;2539;52.568;13.364;2023-03-19T12:44:12;12.30;;;10.07;;
5040;SDS011;2539;52.568;13.364;2023-03-19T12:46:55;10.87;;;9.07;;
5040;SDS011;2539;52.568;13.364;2023-03-19T12:52:02;13.50;;;10.50;;
5040;SDS011;2539;52.568;13.364;2023-03-19T12:54:42;12.20;;;9.47;;
5040;SDS011;2539;52.568;13.364;2023-03-19T12:57:33;13.87;;;9.93;;
5040;SDS011;2539;52.568;13.364;2023-03-19T13:02:55;9.37;;;8.47;;
5040;SDS011;2539;52.568;13.364;2023-03-19T13:05:31;10.00;;;8.90;;
5040;SDS011;2539;52.568;13.364;2023-03-19T13:08:33;13.17;;;9.97;;
5040;SDS011;2539;52.568;13.364;2023-03-19T13:11:07;10.30;;;9.20;;
5040;SDS011;2539;52.568;13.364;2023-03-19T13:13:41;16.70;;;9.10;;
5040;SDS011;2539;52.568;13.364;2023-03-19T13:16:25;8.70;;;7.80;;
5040;SDS011;2539;52.568;13.364;2023-03-19T13:19:15;9.47;;;8.47;;
5040;SDS011;2539;52.568;13.364;2023-03-19T13:21:43;10.97;;;9.17;;
5040;SDS011;2539;52.568;13.364;2023-03-19T13:24:24;9.63;;;8.63;;
5040;SDS011;2539;52.568;13.364;2023-03-19T13:26:53;9.63;;;8.30;;
5040;SDS011;2539;52.568;13.364;2023-03-19T13:29:24;9.30;;;8.30;;
5040;SDS011;2539;52.568;13.364;2023-03-19T13:32:05;9.43;;;8.27;;
5040;SDS011;2539;52.568;13.364;2023-03-19T13:34:48;10.17;;;8.13;;
5040;SDS011;2539;52.568;13.364;2023-03-19T13:37:15;10.60;;;8.20;;
5040;SDS011;2539;52.568;13.364;2023-03-19T13:39:44;8.53;;;7.13;;
5040;SDS011;2539;52.568;13.364;2023-03-19T13:45:03;13.83;;;11.40;;
5040;SDS011;2539;52.568;13.364;2023-03-19T13:47:54;10.67;;;8.80;;
5040;SDS011;2539;52.568;13.364;2023-03-19T13:50:25;11.87;;;8.60;;
5040;SDS011;2539;52.568;13.364;2023-03-19T13:53:09;7.83;;;7.00;;
5040;SDS011;2539;52.568;13.364;2023-03-19T13:55:45;9.00;;;7.50;;
5040;SDS011;2539;52.568;13.364;2023-03-19T13:58:25;14.67;;;8.10;;
5040;SDS011;2539;52.568;13.364;2023-03-19T14:01:33;7.40;;;6.70;;
5040;SDS011;2539;52.568;13.364;2023-03-19T14:04:02;8.07;;;7.27;;
5040;SDS011;2539;52.568;13.364;2023-03-19T14:06:35;9.47;;;7.47;;
5040;SDS011;2539;52.568;13.364;2023-03-19T14:09:06;8.47;;;6.90;;
5040;SDS011;2539;52.568;13.364;2023-03-19T14:12:24;9.70;;;7.70;;
5040;SDS011;2539;52.568;13.364;2023-03-19T14:17:33;14.47;;;8.43;;
5040;SDS011;2539;52.568;13.364;2023-03-19T14:26:31;9.53;;;8.20;;
5040;SDS011;2539;52.568;13.364;2023-03-19T14:31:03;10.20;;;8.03;;
5040;SDS011;2539;52.568;13.364;2023-03-19T14:33:41;11.17;;;8.20;;
5040;SDS011;2539;52.568;13.364;2023-03-19T14:36:11;10.70;;;7.80;;
5040;SDS011;2539;52.568;13.364;2023-03-19T14:38:52;8.70;;;7.70;;
5040;SDS011;2539;52.568;13.364;2023-03-19T14:41:30;9.97;;;6.60;;
5040;SDS011;2539;52.568;13.364;2023-03-19T14:47:15;9.00;;;7.70;;
5040;SDS011;2539;52.568;13.364;2023-03-19T14:50:10;12.87;;;8.30;;
5040;SDS011;2539;52.568;13.364;2023-03-19T14:52:42;9.00;;;8.07;;
5040;SDS011;2539;52.568;13.364;2023-03-19T14:55:33;8.77;;;7.63;;
5040;SDS011;2539;52.568;13.364;2023-03-19T14:58:02;9.83;;;8.37;;
5040;SDS011;2539;52.568;13.364;2023-03-19T15:00:36;10.53;;;8.50;;
5040;SDS011;2539;52.568;13.364;2023-03-19T15:03:12;8.60;;;7.60;;
5040;SDS011;2539;52.568;13.364;2023-03-19T15:06:04;9.40;;;7.83;;
5040;SDS011;2539;52.568;13.364;2023-03-19T15:08:33;9.63;;;8.63;;
5040;SDS011;2539;52.568;13.364;2023-03-19T15:19:23;10.03;;;6.40;;
5040;SDS011;2539;52.568;13.364;2023-03-19T15:22:01;8.00;;;6.57;;
5040;SDS011;2539;52.568;13.364;2023-03-19T15:24:38;7.70;;;6.90;;
5040;SDS011;2539;52.568;13.364;2023-03-19T15:27:19;8.07;;;5.70;;
5040;SDS011;2539;52.568;13.364;2023-03-19T15:29:50;9.20;;;6.47;;
5040;SDS011;2539;52.568;13.364;2023-03-19T15:32:36;7.43;;;6.20;;
5040;SDS011;2539;52.568;13.364;2023-03-19T15:35:04;9.43;;;6.93;;
5040;SDS011;2539;52.568;13.364;2023-03-19T15:37:32;15.20;;;7.90;;
5040;SDS011;2539;52.568;13.364;2023-03-19T15:40:04;8.57;;;7.20;;
5040;SDS011;2539;52.568;13.364;2023-03-19T15:42:38;8.87;;;7.00;;
5040;SDS011;2539;52.568;13.364;2023-03-19T15:45:08;8.47;;;7.37;;
5040;SDS011;2539;52.568;13.364;2023-03-19T15:47:51;9.93;;;7.53;;
5040;SDS011;2539;52.568;13.364;2023-03-19T15:50:23;18.33;;;7.90;;
5040;SDS011;2539;52.568;13.364;2023-03-19T15:52:56;8.23;;;6.60;;
5040;SDS011;2539;52.568;13.364;2023-03-19T15:55:37;10.33;;;7.80;;
5040;SDS011;2539;52.568;13.364;2023-03-19T15:58:08;10.30;;;6.73;;
5040;SDS011;2539;52.568;13.364;2023-03-19T16:00:40;10.57;;;6.10;;
5040;SDS011;2539;52.568;13.364;2023-03-19T16:03:10;8.93;;;6.33;;
5040;SDS011;2539;52.568;13.364;2023-03-19T16:05:42;11.50;;;7.40;;
5040;SDS011;2539;52.568;13.364;2023-03-19T16:08:23;8.83;;;6.63;;
5040;SDS011;2539;52.568;13.364;2023-03-19T16:10:51;8.20;;;6.70;;
5040;SDS011;2539;52.568;13.364;2023-03-19T16:15:54;11.30;;;8.80;;
5040;SDS011;2539;52.568;13.364;2023-03-19T16:18:24;8.47;;;7.47;;
5040;SDS011;2539;52.568;13.364;2023-03-19T16:20:58;8.73;;;6.93;;
5040;SDS011;2539;52.568;13.364;2023-03-19T16:23:39;11.27;;;7.93;;
5040;SDS011;2539;52.568;13.364;2023-03-19T16:26:13;11.13;;;9.17;;